Historique des mesures à Cassis (13260), France
Quotidien Résumé Septembre 28, 2017 Unités:  Métrique    US   Métrique/US
« Précédent (Jour)
Suivant (Jour) »
Quotidien Hebdomadaire Mensuel Annuel Période au choix
  Maximum: Minimum: Moyenne:
Température: TemperatureC °C 16.9 °C 19.1 °C
Point de rosée: DewpointC °C 9.4 °C 11.4 °C
Humidité: Humidity % 51 % 58 %
Vitesse du vent: 0 km/h 0 km/h 3.7 km/h
Rafales: 0 km/h - -
Vent:- - ESE
Pression: PressurehPa hPa 1020.5 hPa -
Précipitations: 0.0 mm    
Historical Graphs
 
 
Mesures pour : Septembre 28, 2017
Heure Temperature Point de rosée Pression Vent Vitesse du vent Rafales Humidité Pluie (par heure) Conditions
TemperatureC °C DewpointC °C PressurehPa hPa Calm     Humidity % HourlyPrecipMM mm SoftwareType W/m2
00:11 17.8 °C 11.1 °C 1020.5 hPa NW 5.1 km/h 5.1 km/h 65 % 0.0 mm open2300-1.11 W/m2
01:11 17.6 °C 10.9 °C 1020.5 hPa Calm   2.9 km/h 65 % 0.0 mm open2300-1.11 W/m2
02:11 17.3 °C 10.6 °C 1020.5 hPa Calm   4.2 km/h 65 % 0.0 mm open2300-1.11 W/m2
03:11 17.4 °C 10.5 °C 1020.5 hPa North 5.6 km/h 7.6 km/h 64 % 0.0 mm open2300-1.11 W/m2
04:11 17.0 °C 10.1 °C 1020.5 hPa North 3.4 km/h 4.2 km/h 64 % 0.0 mm open2300-1.11 W/m2
05:11 17.2 °C 10.1 °C 1020.9 hPa North 5.1 km/h 5.1 km/h 63 % 0.0 mm open2300-1.11 W/m2
06:11 16.9 °C 9.8 °C 1020.5 hPa North 3.4 km/h 5.1 km/h 63 % 0.0 mm open2300-1.11 W/m2
07:11 17.1 °C 9.7 °C 1020.9 hPa NNE 5.1 km/h 5.1 km/h 62 % 0.0 mm open2300-1.11 W/m2
08:11 17.6 °C 9.4 °C 1021.2 hPa Calm   6.9 km/h 59 % 0.0 mm open2300-1.11 W/m2
09:11 18.7 °C 10.0 °C 1021.6 hPa NNW 5.1 km/h 5.1 km/h 57 % 0.0 mm open2300-1.11 W/m2
10:11 20.3 °C 10.7 °C 1021.9 hPa NNE 11.6 km/h 11.6 km/h 54 % 0.0 mm open2300-1.11 W/m2
11:11 21.8 °C 12.3 °C 1022.2 hPa SE 2.3 km/h 6.4 km/h 55 % 0.0 mm open2300-1.11 W/m2
12:11 23.2 °C 12.5 °C 1021.9 hPa SSW 14 km/h 14 km/h 51 % 0.0 mm open2300-1.11 W/m2
13:11 23.9 °C 14.0 °C 1021.9 hPa East 2.3 km/h 6.4 km/h 54 % 0.0 mm open2300-1.11 W/m2
14:11 23.9 °C 14.0 °C 1021.2 hPa ESE 2.3 km/h 9.8 km/h 54 % 0.0 mm open2300-1.11 W/m2
15:11 23.5 °C 14.7 °C 1020.9 hPa SSE 15 km/h 15 km/h 58 % 0.0 mm open2300-1.11 W/m2
16:11 23.3 °C 15.6 °C 1020.9 hPa SE 3.4 km/h 12.2 km/h 62 % 0.0 mm open2300-1.11 W/m2
17:11 23.2 °C 15.5 °C 1020.5 hPa SE 5.6 km/h 5.6 km/h 62 % 0.0 mm open2300-1.11 W/m2
18:11 22.5 °C 15.3 °C 1020.5 hPa SE 4.7 km/h 10.3 km/h 64 % 0.0 mm open2300-1.11 W/m2
19:11 21.3 °C 14.2 °C 1020.5 hPa Calm     64 % 0.0 mm open2300-1.11 W/m2
20:11 20.2 °C 13.4 °C 1020.5 hPa Calm     65 % 0.0 mm open2300-1.11 W/m2
21:11 19.0 °C 10.6 °C 1020.9 hPa Calm   2.3 km/h 58 % 0.0 mm open2300-1.11 W/m2
22:11 18.6 °C 10.2 °C 1020.9 hPa Calm   2.3 km/h 58 % 0.0 mm open2300-1.11 W/m2
23:11 18.5 °C 10.6 °C 1021.2 hPa Calm   2.9 km/h 60 % 0.0 mm open2300-1.11 W/m2
Observations météo à CASSIS
WU-History script by Weather Underground - 1 mb